Airport View

Enter AWOS ICAO identifier for current METAR.

ex. KFNL

KAWG 201125Z AUTO 11004KT 3SM BR OVC110 00/00 A3006 RMK AO2

20 Nov 2019 11:29

Frequency: 127.825

Phone: 319-653-4149

Other Area AWOS: KFFL - KMPZ - KIOW - KMUT

TAF KOTM 200535Z 2006/2106 VRB03KT P6SM FEW100 FM201500 13009KT P6SM BKN100 FM201800 14014G26KT P6SM FEW250 FM210200 16014G24KT 4SM RA OVC025 WS020/18045KT